Dingwall, United Kingdom
Current Conditions -  °F | °C
As of 8:50 PM on Friday 21 Nov 2014 (Local Time) from EGPE Reporting Station
Scattered Clouds Scattered Clouds  
Wind Chill: 43°   Ceiling: Unl
Heat Index: 48°   Visibility: 6mi
Dew Point: 43°   Wind: 13mph
Humidity: 82%   Direction: 120°ESE
Pressure: 29.85"   Gusts: NA
Location:  57.6°N, 4.43°W
Report Text: EGPE 212050Z 12011KT 9999 SCT045 09/06 Q1011
Loading
Personal Weather Stations






























Interactive Weather Map New forecast layout! Learn more

10-Day Weather Forecast

Advertisements
Track Severe Weather on mobile